createdAt,value
2018-01-03T03:12:52.831Z,4.80
2018-01-03T06:31:05.634Z,4.50
2018-01-03T06:33:35.809Z,4.50
2018-01-03T06:44:59.320Z,4.50
2018-01-03T06:50:39.465Z,4.50
2018-01-03T06:56:05.697Z,4.40
2018-01-03T06:58:34.358Z,4.40
2018-01-03T07:01:03.039Z,4.40
2018-01-03T07:03:38.829Z,4.40
2018-01-03T07:06:07.593Z,4.30
2018-01-03T07:08:36.259Z,4.30
2018-01-03T07:11:04.733Z,4.30
2018-01-03T07:13:33.409Z,4.20
2018-01-03T07:16:02.086Z,4.20
2018-01-03T07:18:31.531Z,4.50
2018-01-03T07:21:00.217Z,4.50
2018-01-03T07:23:28.897Z,4.60
2018-01-03T07:25:57.553Z,4.40
2018-01-03T07:28:26.969Z,4.10
2018-01-03T07:30:55.473Z,4.00
2018-01-03T07:33:24.133Z,4.00
2018-01-03T07:35:52.801Z,3.90
2018-01-03T07:38:22.221Z,3.80
2018-01-03T07:40:50.894Z,3.80
2018-01-03T07:43:20.325Z,3.70
2018-01-03T07:45:48.993Z,3.70
2018-01-03T07:48:18.424Z,3.70
2018-01-03T07:50:47.105Z,3.70
2018-01-03T07:53:15.773Z,3.70
2018-01-03T07:55:44.486Z,3.60
2018-01-03T07:58:13.141Z,3.60
2018-01-03T08:00:42.798Z,3.60
2018-01-03T08:03:13.718Z,3.60
2018-01-03T08:05:42.393Z,3.60
2018-01-03T08:08:11.110Z,3.60
2018-01-03T08:10:39.765Z,3.60
2018-01-03T08:13:08.438Z,3.60
2018-01-03T08:15:37.893Z,3.60
2018-01-03T08:18:06.553Z,3.60
2018-01-03T08:20:35.228Z,3.60
2018-01-03T08:23:06.401Z,3.60
2018-01-03T08:25:35.085Z,3.70
2018-01-03T08:28:08.344Z,3.70
2018-01-03T08:33:12.930Z,3.70
2018-01-03T08:35:55.409Z,3.70
2018-01-03T08:38:24.084Z,3.80
2018-01-03T08:40:53.536Z,3.80
2018-01-03T08:43:27.518Z,3.80
2018-01-03T08:45:56.682Z,3.90
2018-01-03T08:48:25.514Z,4.00
2018-01-03T08:50:54.212Z,4.10
2018-01-03T08:53:22.876Z,4.10
2018-01-03T08:55:51.596Z,4.20
2018-01-03T08:58:20.267Z,4.30
2018-01-03T09:00:48.963Z,4.30
2018-01-03T09:03:17.632Z,4.40
2018-01-03T09:05:46.333Z,4.40
2018-01-03T09:08:15.006Z,4.40
2018-01-03T09:10:43.334Z,4.40
2018-01-03T09:13:12.062Z,4.50
2018-01-03T09:18:15.844Z,4.50
2018-01-03T09:20:44.518Z,4.50
2018-01-03T09:23:13.940Z,4.50
2018-01-03T09:25:43.540Z,4.50
2018-01-03T09:28:12.029Z,4.50
2018-01-03T09:30:40.727Z,4.60
2018-01-03T09:33:10.150Z,4.70
2018-01-03T09:35:39.609Z,4.70
2018-01-03T09:38:08.281Z,4.70
2018-01-03T09:40:37.684Z,4.80
2018-01-03T09:43:18.376Z,4.80
2018-01-03T09:45:47.779Z,4.90
2018-01-03T09:48:16.441Z,5.10
2018-01-03T09:50:45.136Z,5.20
2018-01-03T09:53:14.606Z,5.30
2018-01-03T09:55:43.285Z,5.40
2018-01-03T09:58:13.473Z,5.70
2018-01-03T10:00:41.963Z,5.60
2018-01-03T10:03:14.453Z,5.80
2018-01-03T10:08:49.341Z,5.90
2018-01-03T10:11:28.158Z,6.00
2018-01-03T10:13:56.824Z,6.10
2018-01-03T10:16:26.267Z,6.30
2018-01-03T10:18:55.212Z,6.30
2018-01-03T10:21:24.649Z,6.40
2018-01-03T10:23:53.305Z,6.40
2018-01-03T10:26:22.754Z,6.60
2018-01-03T10:28:51.413Z,6.60
2018-01-03T10:31:20.084Z,6.70
2018-01-03T10:33:49.505Z,6.70
2018-01-03T10:36:18.185Z,6.70
2018-01-03T10:38:47.612Z,6.70
2018-01-03T10:41:16.296Z,6.70
2018-01-03T10:43:44.961Z,6.70
2018-01-03T10:46:14.406Z,6.80
2018-01-03T10:48:43.065Z,6.80
2018-01-03T10:51:11.731Z,6.80
2018-01-03T10:53:41.154Z,7.00
2018-01-03T10:56:10.948Z,6.90
2018-01-03T10:58:40.373Z,7.10
2018-01-03T11:01:09.045Z,7.10
2018-01-03T11:03:38.475Z,7.20
2018-01-03T11:06:07.156Z,7.20
2018-01-03T11:08:35.818Z,7.30
2018-01-03T11:11:04.925Z,7.40
2018-01-03T11:13:33.610Z,7.30
2018-01-03T11:16:02.286Z,7.40
2018-01-03T11:18:31.733Z,7.50
2018-01-03T11:21:00.389Z,7.50
2018-01-03T11:23:29.077Z,7.60
2018-01-03T11:25:58.503Z,7.80
2018-01-03T11:28:27.255Z,7.80
2018-01-03T11:30:56.697Z,8.00
2018-01-03T11:33:25.361Z,7.90
2018-01-03T11:35:54.050Z,8.10
2018-01-03T11:38:22.710Z,8.30
2018-01-03T11:40:51.377Z,8.30
2018-01-03T11:43:20.064Z,8.50
2018-01-03T11:45:48.938Z,8.60
2018-01-03T11:48:17.626Z,8.80
2018-01-03T11:50:46.286Z,8.90
2018-01-03T11:53:14.957Z,9.00
2018-01-03T11:55:43.638Z,9.10
2018-01-03T11:58:13.066Z,9.30
2018-01-03T12:00:41.413Z,9.30
2018-01-03T12:03:11.753Z,9.50
2018-01-03T12:05:40.442Z,9.50
2018-01-03T12:08:09.108Z,9.60
2018-01-03T12:10:38.562Z,9.70
2018-01-03T12:13:07.431Z,9.60
2018-01-03T12:15:36.154Z,9.70
2018-01-03T12:18:04.993Z,9.80
2018-01-03T12:20:34.449Z,9.90
2018-01-03T12:23:03.125Z,9.90
2018-01-03T12:25:31.821Z,10.00
2018-01-03T12:28:00.493Z,10.10
2018-01-03T12:30:29.154Z,10.10
2018-01-03T12:32:57.834Z,10.10
2018-01-03T12:35:27.324Z,10.10
2018-01-03T12:37:57.567Z,10.10
2018-01-03T12:40:27.062Z,10.10
2018-01-03T12:42:56.486Z,9.80
2018-01-03T12:45:25.152Z,9.80
2018-01-03T12:47:54.579Z,8.40
2018-01-03T12:50:23.248Z,8.30
2018-01-03T12:52:52.668Z,7.60
2018-01-03T12:55:20.696Z,7.60
2018-01-03T12:57:49.348Z,7.40
2018-01-03T13:00:18.370Z,7.30
2018-01-03T13:02:47.045Z,7.20
2018-01-03T13:05:16.486Z,7.10
2018-01-03T13:07:45.182Z,7.10
2018-01-03T13:10:14.600Z,7.00
2018-01-03T13:12:43.281Z,7.00
2018-01-03T13:15:11.945Z,7.00
2018-01-03T13:17:40.641Z,7.10
2018-01-03T13:20:10.065Z,7.10
2018-01-03T13:22:38.753Z,7.10
2018-01-03T13:25:07.410Z,7.10
2018-01-03T13:27:36.099Z,7.10
2018-01-03T13:30:05.530Z,7.10
2018-01-03T13:32:34.219Z,7.00
2018-01-03T13:35:02.905Z,7.00
2018-01-03T13:37:31.568Z,7.00
2018-01-03T13:40:01.010Z,7.00
2018-01-03T13:42:29.700Z,7.00
2018-01-03T13:45:00.544Z,7.10
2018-01-03T13:47:29.214Z,7.00
2018-01-03T13:49:57.928Z,7.10
2018-01-03T13:52:26.589Z,7.10
2018-01-03T13:54:55.246Z,7.20
2018-01-03T13:57:24.353Z,7.20
2018-01-03T13:59:53.773Z,7.30
2018-01-03T14:08:20.698Z,7.30
2018-01-03T14:10:49.410Z,7.30
2018-01-03T14:13:20.043Z,7.30
2018-01-03T14:15:48.791Z,7.40
2018-01-03T14:18:17.135Z,7.40
2018-01-03T14:20:46.592Z,7.50
2018-01-03T14:23:15.273Z,7.40
2018-01-03T14:25:44.809Z,7.50
2018-01-03T14:37:34.021Z,7.50
2018-01-03T14:40:02.692Z,7.40
2018-01-03T14:42:31.365Z,7.40
2018-01-03T14:45:00.047Z,7.40
2018-01-03T14:47:28.741Z,7.40
2018-01-03T14:49:57.403Z,7.40
2018-01-03T14:52:26.068Z,7.30
2018-01-03T14:54:55.512Z,7.20
2018-01-03T14:57:24.216Z,7.20
2018-01-03T14:59:52.880Z,7.20
2018-01-03T15:02:21.557Z,7.20
2018-01-03T15:04:50.242Z,7.10
2018-01-03T15:07:18.910Z,7.10
2018-01-03T15:09:49.120Z,7.10
2018-01-03T15:12:17.764Z,7.00
2018-01-03T15:14:46.433Z,7.00
2018-01-03T15:17:15.125Z,7.00
2018-01-03T15:19:43.788Z,7.00
2018-01-03T15:22:18.409Z,7.00
2018-01-03T15:24:47.848Z,6.90
2018-01-03T15:27:16.170Z,6.90
2018-01-03T15:29:44.852Z,6.90
2018-01-03T15:32:17.228Z,6.90
2018-01-03T15:34:45.577Z,6.90
2018-01-03T15:37:14.237Z,7.00
2018-01-03T15:39:42.938Z,7.00
2018-01-03T15:42:11.688Z,7.00
2018-01-03T15:44:41.130Z,7.00
2018-01-03T15:47:12.074Z,7.00
2018-01-03T15:49:40.749Z,7.00
2018-01-03T15:52:09.425Z,7.10
2018-01-03T15:54:38.105Z,7.00
2018-01-03T15:57:06.455Z,7.10
2018-01-03T15:59:35.121Z,7.10
2018-01-03T16:02:03.780Z,7.10
2018-01-03T16:04:32.461Z,7.20
2018-01-03T16:07:01.131Z,7.20
2018-01-03T16:09:30.590Z,7.20
2018-01-03T16:11:59.254Z,7.20
2018-01-03T16:14:27.925Z,7.30
2018-01-03T16:16:56.630Z,7.40
2018-01-03T16:19:25.317Z,7.40
2018-01-03T16:21:53.972Z,7.40
2018-01-03T16:24:22.628Z,7.40
2018-01-03T16:26:51.305Z,7.40
2018-01-03T16:29:19.967Z,7.50
2018-01-03T16:31:48.650Z,7.60
2018-01-03T16:34:17.314Z,7.60
2018-01-03T16:36:45.993Z,7.60
2018-01-03T16:39:14.670Z,7.70
2018-01-03T16:41:44.128Z,7.80
2018-01-03T16:44:13.734Z,7.70
2018-01-03T16:46:43.301Z,7.70
2018-01-03T16:52:26.949Z,7.80
2018-01-03T16:55:00.441Z,7.70
2018-01-03T17:00:24.993Z,7.60
2018-01-03T17:02:53.470Z,7.70
2018-01-03T17:05:22.136Z,7.60
2018-01-03T17:07:50.796Z,7.60
2018-01-03T17:10:19.478Z,7.60
2018-01-03T17:12:48.129Z,7.60
2018-01-03T17:15:16.800Z,7.50
2018-01-03T17:17:45.465Z,7.50
2018-01-03T17:20:20.928Z,7.40
2018-01-03T17:22:49.585Z,7.40
2018-01-03T17:25:19.029Z,7.40
2018-01-03T17:27:47.701Z,7.40
2018-01-03T17:30:16.399Z,7.40
2018-01-03T17:32:45.074Z,7.40
2018-01-03T17:35:13.754Z,7.30
2018-01-03T17:37:42.084Z,7.40
2018-01-03T17:40:10.756Z,7.50
2018-01-03T17:42:39.441Z,7.50
2018-01-03T17:45:08.096Z,7.40
2018-01-03T17:47:36.760Z,7.50
2018-01-03T17:50:06.215Z,7.40
2018-01-03T17:52:34.885Z,7.40
2018-01-03T17:55:05.211Z,7.40
2018-01-03T17:57:33.896Z,7.50
2018-01-03T18:00:02.557Z,7.80
2018-01-03T18:02:35.571Z,7.80
2018-01-03T18:05:04.296Z,7.80
2018-01-03T18:07:32.986Z,7.70
2018-01-03T18:10:01.685Z,7.70
2018-01-03T18:12:33.564Z,7.60
2018-01-03T18:15:05.607Z,7.60
2018-01-03T18:17:35.163Z,7.60
2018-01-03T18:20:04.231Z,7.60
2018-01-03T18:22:33.671Z,7.70
2018-01-03T18:28:04.448Z,7.70
2018-01-03T18:30:49.865Z,7.70
2018-01-03T18:33:18.533Z,7.70
2018-01-03T18:48:07.122Z,7.60
2018-01-03T18:50:42.299Z,7.60
2018-01-03T19:02:02.961Z,7.50
2018-01-03T19:04:31.635Z,7.50
2018-01-03T19:07:00.329Z,7.50
2018-01-03T19:09:29.021Z,7.50
2018-01-03T19:11:57.698Z,7.50
2018-01-03T19:14:26.352Z,7.50
2018-01-03T19:16:55.041Z,7.50
2018-01-03T19:19:25.244Z,7.50
2018-01-03T19:21:55.715Z,7.50
2018-01-03T19:24:24.050Z,7.50
2018-01-03T19:26:53.505Z,7.50
2018-01-03T19:29:41.557Z,7.50
2018-01-03T19:32:10.236Z,7.40
2018-01-03T19:34:38.900Z,7.50
2018-01-03T19:37:10.913Z,7.50
2018-01-03T19:39:39.574Z,7.60
2018-01-03T19:42:08.248Z,7.60
2018-01-03T19:44:36.906Z,7.60
2018-01-03T19:47:06.809Z,7.60
2018-01-03T19:49:36.929Z,7.60
2018-01-03T19:52:06.568Z,7.60
2018-01-03T19:54:35.223Z,7.60
2018-01-03T19:57:04.664Z,7.60
2018-01-03T19:59:33.318Z,7.60
2018-01-03T20:02:02.580Z,7.80
2018-01-03T20:04:31.236Z,7.70
2018-01-03T20:07:03.590Z,7.80
2018-01-03T20:09:32.277Z,7.80
2018-01-03T20:12:00.958Z,7.80
2018-01-03T20:14:30.398Z,7.80
2018-01-03T20:16:59.079Z,7.80
2018-01-03T20:19:27.749Z,7.80
2018-01-03T20:22:02.410Z,7.80
2018-01-03T20:24:33.584Z,7.80
2018-01-03T20:27:18.109Z,7.80
2018-01-03T20:30:15.886Z,7.80
2018-01-03T20:32:44.565Z,7.80
2018-01-03T20:35:13.261Z,7.80
2018-01-03T20:37:41.925Z,7.80
2018-01-03T20:46:27.155Z,7.80
2018-01-03T20:52:09.145Z,7.90
2018-01-03T21:00:25.957Z,7.90
2018-01-03T21:03:16.391Z,7.90
2018-01-03T21:20:46.223Z,7.80
2018-01-03T21:34:24.729Z,7.90
2018-01-03T21:36:57.295Z,8.00
2018-01-03T21:39:25.622Z,8.00
2018-01-03T21:41:54.301Z,8.00
2018-01-03T21:44:22.965Z,8.00
2018-01-03T21:46:51.630Z,8.00
2018-01-03T21:49:20.306Z,8.00
2018-01-03T21:51:48.952Z,8.10
2018-01-03T21:54:17.305Z,8.00
2018-01-03T21:56:45.988Z,8.00
2018-01-03T21:59:14.641Z,8.00
2018-01-03T22:01:43.316Z,8.10
2018-01-03T22:04:12.749Z,8.00
2018-01-03T22:06:41.438Z,8.10
2018-01-03T22:09:10.109Z,8.10
2018-01-03T22:11:41.263Z,8.10
2018-01-03T22:16:48.498Z,8.10
2018-01-03T22:19:23.518Z,8.00
2018-01-03T22:21:54.504Z,8.00
2018-01-03T22:49:30.805Z,7.30
2018-01-03T22:52:04.649Z,7.30
2018-01-03T22:57:26.816Z,7.30
